Архив погоды в Новом Торьяле

Метеограмма Новый Торьял
Понедельник, 25 Июня
Время местн. Темп Ветер Видим Явления Облачность нижн/средн/верх Атм. давл. Влжн Точка росы ВНГО R Сост. почвы Tg s
Напр Скр Прв ур.ст ур.м изм
03:00 +17.1° штиль 0 1 20 км - облачно с прояснениями 750 763 +0.5 94% +16.1° более 2.5 км - - - -
00:00 +18.6° штиль 0 2 20 км - облачно с прояснениями 750 762 +0.3 87% +16.4° более 2.5 км - - - -
Воскресенье, 24 Июня
Время местн. Темп Ветер Видим Явления Облачность нижн/средн/верх Атм. давл. Влжн Точка росы ВНГО R Сост. почвы Tg s
Напр Скр Прв ур.ст ур.м изм
21:00 +23.8° Ю 2 2 20 км - облачно 749 762 +0.5 70% +17.9° более 2.5 км - - - -
18:00 +31.4° З 1 5 20 км - переменная облачность 749 761 -0.3 35% +14.2° 600 м 0 - - -
15:00 +31.1° Ю-З 2 4 20 км - переменная облачность 749 761 0 34% +13.5° 600 м - - - -
12:00 +29.9° Ю,Ю-З 2 5 20 км - переменная облачность 749 761 +0.3 39% +14.5° 600 м - - - -
09:00 +27.6° Ю,Ю-З 2 3 20 км - переменная облачность 749 761 0 53% +17.3° более 2.5 км - - - -
06:00 +19° штиль 0 0 20 км - облачно 749 762 +0.2 87% +16.7° более 2.5 км - Влажная (без луж) - -
03:00 +15.1° штиль 0 0 20 км - облачно с прояснениями 749 762 +1 96% +14.4° более 2.5 км - - - -
00:00 +16.7° штиль 0 0 20 км - переменная облачность 748 760 +0.5 93% +15.5° более 2.5 км - - - -
Суббота, 23 Июня
Время местн. Темп Ветер Видим Явления Облачность нижн/средн/верх Атм. давл. Влжн Точка росы ВНГО R Сост. почвы Tg s
Напр Скр Прв ур.ст ур.м изм
21:00 +21.9° штиль 0 0 20 км - облачно 747 760 +0.2 78% +17.9° более 2.5 км - - - -
18:00 +27.7° С,С-З 2 3 20 км - переменная облачность 747 759 -0.2 43% +14° более 2.5 км - - - -
15:00 +27.6° С-З 3 6 20 км - облачно с прояснениями 747 759 -0.2 42% +13.4° 1 км - - - -
12:00 +26.2° З,С-З 2 5 20 км - облачно с прояснениями 748 760 +0.1 49% +14.8° 1 км - - - -
09:00 +23.7° З,С-З 3 4 20 км - переменная облачность 747 760 0 57% +14.6° более 2.5 км - - - -
06:00 +14.1° З,С-З 1 2 20 км - переменная облачность 747 760 +0.6 82% +11° более 2.5 км - Влажная (без луж) - -
03:00 +9° штиль 0 0 20 км - облачно 747 760 +0.5 93% +8° более 2.5 км - - - -
00:00 +9.9° З,С-З 1 3 20 км - облачно 746 759 +0.2 92% +8.6° более 2.5 км - - - -
Пятница, 22 Июня
Время местн. Темп Ветер Видим Явления Облачность нижн/средн/верх Атм. давл. Влжн Точка росы ВНГО R Сост. почвы Tg s
Напр Скр Прв ур.ст ур.м изм
21:00 +18.2° З 1 6 20 км - облачно с прояснениями 746 759 +0.7 54% +8.8° более 2.5 км - - - -
18:00 +22.8° С-З 3 8 20 км - облачно 745 758 -0.2 40% +8.5° более 2.5 км 0 - - -
15:00 +22.5° С,С-З 4 10 20 км - облачно 746 758 +0.2 35% +6.2° более 2.5 км - - - -
12:00 +21.2° С,С-З 5 11 20 км - облачно 745 758 +0.6 43% +8° 1 км - - - -
09:00 +19.1° С,С-З 4 9 20 км - облачно с прояснениями 745 757 +1.1 46% +7.3° более 2.5 км - - - -
06:00 +14.7° С-З 4 7 20 км - переменная облачность 744 756 +1 57% +6.4° более 2.5 км - Влажная (без луж) - -
03:00 +13.9° С-З 4 6 20 км - переменная облачность 743 756 +1.4 57% +5.5° 1 км - - - -
00:00 +16.1° З,С-З 5 7 20 км - преимущественно облачно 741 754 +0.8 48% +5.1° 600 м - - - -